Latest Weather Observations for Lake Macquarie - Cooranbong

IDN60801

Issued at 7:03 am EST Wednesday 22 April 2015 (issued every 30 minutes, with the page automatically refreshed every 10 minutes)

About weather observations | Map of weather stations | Latest weather observations for NSW | Other Formats
Station Details ID: 061412 Name: LAKE MACQUARIE AWS Lat: -33.09 Lon: 151.46 Height: 6.0 m
Data from the previous 72 hours. | See also: Recent months at Lake Macquarie - Cooranbong
Date/Time
EST
Temp
°C
App
Temp
°C
Dew
Point
Rel
Hum
%
Delta-T
°C
Wind Press
QNH
hPa
Press
MSL
hPa
Rain
since 9 am
mm
Dir
 
Spd
km/h
Gust
km/h
Spd
kts
Gust
kts
22/07:00am 15.0 15.5 13.9 93 0.6 SSW 4 11 2 6 1012.1 1012.1 -
22/06:30am 15.0 14.9 13.9 93 0.6 SW 7 17 4 9 1011.8 1011.8 -
22/06:00am 15.0 15.1 13.9 93 0.6 SW 6 7 3 4 1011.7 1011.7 -
22/05:30am 15.1 16.0 14.0 93 0.6 WSW 2 7 1 4 1011.7 1011.7 -
22/05:00am 15.4 15.9 13.9 91 0.8 WSW 4 6 2 3 1011.0 1011.0 -
22/04:30am 16.4 17.0 15.3 93 0.6 SW 6 11 3 6 1010.5 1010.5 -
22/04:00am 16.3 17.5 15.0 92 0.8 WSW 2 7 1 4 1010.6 1010.6 -
22/03:30am 16.0 16.8 14.7 92 0.7 SW 4 9 2 5 1010.5 1010.5 -
22/03:00am 15.6 15.9 14.5 93 0.6 WSW 6 13 3 7 1010.6 1010.6 39.0
22/02:30am 15.2 15.6 13.7 91 0.8 WSW 4 7 2 4 1011.4 1011.4 -
22/02:00am 15.2 15.2 13.7 91 0.8 S 6 13 3 7 1011.6 1011.6 -
22/01:30am 15.1 13.7 13.5 90 0.9 SW 13 26 7 14 1011.1 1011.1 -
22/01:00am 14.9 13.6 13.6 92 0.7 WSW 13 30 7 16 1010.8 1010.8 -
22/12:30am 14.3 13.2 13.2 93 0.6 SW 11 24 6 13 1011.0 1011.0 -
22/12:00am 14.4 12.6 13.3 93 0.6 WSW 15 35 8 19 1010.9 1010.9 -
 
Date/Time
EST
Temp
°C
App
Temp
°C
Dew
Point
Rel
Hum
%
Delta-T
°C
Wind Press
QNH
hPa
Press
MSL
hPa
Rain
since 9 am
mm
Dir
 
Spd
km/h
Gust
km/h
Spd
kts
Gust
kts
21/11:30pm 14.4 13.4 13.4 94 0.6 W 11 30 6 16 1011.9 1011.9 -
21/11:00pm 14.8 13.9 13.8 94 0.6 SW 11 24 6 13 1012.8 1012.8 -
21/10:30pm 14.6 14.0 13.6 94 0.6 SW 9 24 5 13 1013.0 1013.0 -
21/10:00pm 14.8 14.4 14.0 95 0.4 S 9 24 5 13 1013.9 1013.9 -
21/09:30pm 14.6 13.3 13.8 95 0.4 SE 13 22 7 12 1014.4 1014.4 -
21/09:00pm 14.4 12.6 13.3 93 0.6 SSW 15 35 8 19 1013.1 1013.1 -
21/08:30pm 14.5 11.9 13.2 92 0.7 SW 19 39 10 21 1013.3 1013.3 -
21/08:00pm 14.8 11.9 13.0 89 1.0 SSW 20 48 11 26 1013.0 1013.0 -
21/07:30pm 14.3 11.4 12.9 91 0.8 SSW 20 39 11 21 1012.5 1012.5 -
21/07:00pm 14.2 11.5 12.8 91 0.8 SW 19 43 10 23 1012.7 1012.7 -
21/06:30pm 14.4 11.7 12.8 90 0.9 SW 19 44 10 24 1013.3 1013.3 -
21/06:00pm 13.9 11.8 12.5 91 0.8 SW 15 32 8 17 1013.9 1013.9 -
21/05:30pm 13.7 11.2 12.3 91 0.8 SW 17 30 9 16 1013.8 1013.8 -
21/05:00pm 13.7 10.8 12.4 92 0.7 WSW 19 32 10 17 1014.1 1014.1 64.4
21/04:30pm 13.7 12.4 12.6 93 0.6 SW 11 26 6 14 1015.1 1015.1 61.8
21/04:00pm 14.0 12.8 12.9 93 0.6 SW 11 28 6 15 1015.9 1015.9 56.6
21/03:30pm 13.9 13.6 12.8 93 0.6 SW 6 13 3 7 1016.0 1016.0 50.0
21/03:00pm 13.9 12.2 12.6 92 0.7 SSW 13 32 7 17 1015.8 1015.8 44.0
21/02:30pm 14.0 12.3 12.6 91 0.8 S 13 32 7 17 1016.1 1016.1 39.6
21/02:00pm 14.8 13.1 13.5 92 0.7 SSW 15 37 8 20 1016.2 1016.2 34.4
21/01:30pm 14.1 12.9 12.7 91 0.8 SSW 11 30 6 16 1016.0 1016.0 32.6
21/01:00pm 14.3 12.0 12.9 91 0.8 S 17 39 9 21 1016.0 1016.0 30.2
21/12:30pm 14.4 12.1 13.1 92 0.7 S 17 43 9 23 1016.4 1016.4 25.6
21/12:00pm 14.9 12.7 13.4 91 0.8 S 17 35 9 19 1015.6 1015.6 20.2
21/11:30am 15.1 12.1 13.8 92 0.7 S 22 46 12 25 1016.0 1016.0 17.4
21/11:21am 15.1 11.1 14.0 93 0.6 S 28 61 15 33 1015.6 1015.6 17.0
21/11:00am 15.0 12.1 13.9 93 0.6 S 22 44 12 24 1015.6 1015.6 16.4
21/10:30am 14.7 12.1 13.7 94 0.6 S 20 56 11 30 1016.4 1016.4 13.0
21/10:00am 15.0 12.4 13.9 93 0.6 S 20 39 11 21 1016.4 1016.4 5.8
21/09:30am 15.2 12.3 13.9 92 0.7 S 22 50 12 27 1016.4 1016.4 3.6
21/09:00am 15.1 13.1 13.8 92 0.7 S 17 39 9 21 1016.8 1016.8 117.8
21/08:30am 15.2 11.6 13.2 88 1.1 S 24 52 13 28 1016.8 1016.8 115.6
21/08:00am 15.2 11.8 12.5 84 1.5 S 22 46 12 25 1017.1 1017.1 115.0
21/07:52am 15.5 11.1 12.8 84 1.5 S 28 48 15 26 1016.8 1016.8 115.0
21/07:30am 15.5 12.3 13.2 86 1.3 S 22 52 12 28 1016.5 1016.5 115.0
21/07:00am 15.3 12.8 14.0 92 0.7 S 20 41 11 22 1016.1 1016.1 114.6
21/06:30am 15.1 11.7 13.8 92 0.7 S 24 48 13 26 1016.3 1016.3 111.6
21/06:00am 14.9 11.9 13.6 92 0.7 S 22 54 12 29 1016.0 1016.0 109.4
21/05:30am 15.1 11.3 13.5 90 0.9 S 26 54 14 29 1015.7 1015.7 108.4
21/05:20am 15.4 11.3 13.9 91 0.8 S 28 56 15 30 1015.3 1015.3 108.2
21/05:00am 14.9 12.5 13.8 93 0.6 S 19 43 10 23 1015.0 1015.0 106.8
21/04:30am 14.9 12.8 13.6 92 0.7 S 17 39 9 21 1015.7 1015.7 101.4
21/04:09am 15.2 11.1 13.7 91 0.8 S 28 56 15 30 1015.6 1015.6 98.8
21/04:00am 15.2 12.5 13.6 90 0.9 S 20 54 11 29 1015.7 1015.7 98.0
21/03:30am 15.6 12.7 14.0 90 0.9 S 22 52 12 28 1015.4 1015.4 97.2
21/03:00am 15.4 13.9 14.1 92 0.7 S 15 30 8 16 1015.4 1015.4 97.0
21/02:30am 15.7 13.6 14.6 93 0.6 S 19 43 10 23 1016.2 1016.2 96.2
21/02:00am 15.8 13.7 14.7 93 0.6 S 19 50 10 27 1016.8 1016.8 93.6
21/01:30am 15.8 13.7 14.7 93 0.6 SSW 19 39 10 21 1016.8 1016.8 88.4
21/01:00am 15.8 13.6 14.5 92 0.7 S 19 37 10 20 1017.2 1017.2 84.4
21/12:30am 16.0 14.0 14.9 93 0.6 S 19 35 10 19 1017.9 1017.9 81.0
21/12:00am 16.1 14.1 15.0 93 0.6 S 19 48 10 26 1018.2 1018.2 75.6
 
Date/Time
EST
Temp
°C
App
Temp
°C
Dew
Point
Rel
Hum
%
Delta-T
°C
Wind Press
QNH
hPa
Press
MSL
hPa
Rain
since 9 am
mm
Dir
 
Spd
km/h
Gust
km/h
Spd
kts
Gust
kts
20/11:30pm 16.6 15.2 15.6 94 0.6 S 17 46 9 25 1018.4 1018.4 71.8
20/11:00pm 16.7 15.7 15.7 94 0.6 S 15 37 8 20 1018.5 1018.5 67.6
20/10:30pm 16.4 14.5 15.3 93 0.6 S 19 32 10 17 1018.7 1018.7 64.0
20/10:00pm 16.4 15.7 15.4 94 0.6 SSE 13 41 7 22 1018.3 1018.3 59.6
20/09:30pm 16.6 16.0 15.6 94 0.6 S 13 28 7 15 1018.7 1018.7 43.4
20/09:00pm 16.7 15.0 15.7 94 0.6 S 19 39 10 21 1019.4 1019.4 32.6
20/08:30pm 16.8 16.2 15.7 93 0.6 S 13 30 7 16 1019.5 1019.5 25.2
20/08:00pm 17.1 17.0 16.0 93 0.6 S 11 30 6 16 1019.5 1019.5 21.6
20/07:30pm 17.1 16.6 15.8 92 0.8 S 13 37 7 20 1019.7 1019.7 21.0
20/07:00pm 16.9 16.7 15.6 92 0.8 S 11 28 6 15 1019.6 1019.6 20.4
20/06:30pm 16.7 16.8 15.6 93 0.6 S 9 20 5 11 1019.9 1019.9 19.8
20/06:00pm 16.2 16.5 15.1 93 0.6 SW 7 17 4 9 1020.0 1020.0 17.8
20/05:30pm 16.3 17.2 15.0 92 0.8 SW 4 9 2 5 1019.9 1019.9 15.6
20/05:00pm 16.4 16.7 15.1 92 0.7 WSW 7 19 4 10 1019.8 1019.8 15.6
20/04:30pm 16.6 17.0 15.3 92 0.8 SSW 7 17 4 9 1019.9 1019.9 13.4
20/04:00pm 16.7 17.2 15.6 93 0.6 WSW 7 17 4 9 1019.7 1019.7 9.8
20/03:30pm 16.7 17.7 15.4 92 0.8 WSW 4 11 2 6 1019.9 1019.9 9.0
20/03:00pm 16.6 17.8 15.0 90 0.9 S 2 6 1 3 1020.0 1020.0 7.2
20/02:30pm 16.8 17.4 15.2 90 0.9 SSE 6 13 3 7 1019.5 1019.5 6.4
20/02:00pm 16.8 17.2 15.2 90 0.9 S 7 15 4 8 1019.4 1019.4 5.4
20/01:30pm 17.7 18.3 15.7 88 1.2 S 7 15 4 8 1019.7 1019.7 4.8
20/01:00pm 17.5 18.1 15.8 90 1.0 S 7 15 4 8 1020.0 1020.0 4.4
20/12:30pm 17.1 17.5 15.3 89 1.0 S 7 20 4 11 1020.6 1020.6 4.0
20/12:00pm 17.2 16.9 15.4 89 1.0 SSE 11 24 6 13 1020.8 1020.8 3.4
20/11:30am 16.9 17.7 15.8 93 0.6 SE 6 13 3 7 1021.5 1021.5 2.0
20/11:00am 15.7 16.4 14.6 93 0.6 SW 4 7 2 4 1021.3 1021.3 1.6
20/10:30am 15.4 15.6 14.3 93 0.6 SW 6 13 3 7 1021.9 1021.9 1.4
20/10:00am 14.4 14.3 13.3 93 0.6 SSW 6 11 3 6 1022.5 1022.5 1.2
20/09:30am 14.0 13.1 12.7 92 0.7 SW 9 19 5 10 1022.7 1022.7 0.8
20/09:00am 13.7 12.7 12.4 92 0.7 SW 9 19 5 10 1023.0 1023.0 7.4
20/08:30am 13.2 12.5 11.9 92 0.7 SW 7 19 4 10 1023.2 1023.2 6.8
20/08:00am 13.0 12.2 11.6 91 0.7 WSW 7 15 4 8 1023.3 1023.3 5.4
20/07:30am 12.7 11.7 11.1 90 0.8 SW 7 22 4 12 1023.1 1023.1 4.4
20/07:00am 12.6 11.7 11.2 91 0.7 SW 7 15 4 8 1023.0 1023.0 4.4
20/06:30am 12.5 11.7 10.9 90 0.8 SSW 6 13 3 7 1022.8 1022.8 4.4
20/06:00am 12.6 11.6 11.0 90 0.8 SW 7 15 4 8 1023.0 1023.0 3.8
20/05:30am 12.8 11.9 11.2 90 0.8 SW 7 15 4 8 1023.0 1023.0 3.4
20/05:00am 13.0 12.7 11.4 90 0.8 SW 4 13 2 7 1023.1 1023.1 2.6
20/04:30am 13.0 12.7 11.4 90 0.8 SSW 4 7 2 4 1022.8 1022.8 2.6
20/04:00am 13.0 12.7 11.4 90 0.8 SSW 4 15 2 8 1023.0 1023.0 2.4
20/03:30am 12.9 12.0 11.3 90 0.8 SW 7 15 4 8 1022.7 1022.7 2.4
20/03:00am 13.1 12.4 11.5 90 0.8 SSW 6 15 3 8 1022.9 1022.9 1.8
20/02:30am 12.9 12.5 11.1 89 0.9 SW 4 13 2 7 1023.1 1023.1 1.8
20/02:00am 13.0 12.2 10.9 87 1.1 SSW 6 15 3 8 1023.5 1023.5 1.4
20/01:30am 13.3 12.2 10.7 84 1.4 SW 7 15 4 8 1023.8 1023.8 0.8
20/01:00am 13.6 12.6 10.2 80 1.8 SW 6 13 3 7 1023.8 1023.8 0.4
20/12:30am 13.6 12.4 10.2 80 1.8 WSW 7 15 4 8 1024.2 1024.2 0.4
20/12:00am 13.8 12.7 10.8 82 1.6 SW 7 19 4 10 1024.0 1024.0 0.4
 
Date/Time
EST
Temp
°C
App
Temp
°C
Dew
Point
Rel
Hum
%
Delta-T
°C
Wind Press
QNH
hPa
Press
MSL
hPa
Rain
since 9 am
mm
Dir
 
Spd
km/h
Gust
km/h
Spd
kts
Gust
kts
19/11:30pm 14.0 13.7 11.3 84 1.4 SW 4 9 2 5 1024.1 1024.1 0.4
19/11:00pm 14.4 13.7 11.4 82 1.6 SW 6 13 3 7 1024.3 1024.3 0.4
19/10:30pm 14.9 14.2 11.5 80 1.8 SSW 6 11 3 6 1024.5 1024.5 0.4
19/10:00pm 15.7 14.4 11.1 74 2.4 SSW 9 20 5 11 1024.5 1024.5 0.2
19/09:30pm 16.1 14.9 11.7 75 2.4 S 9 15 5 8 1024.1 1024.1 0.2
19/09:00pm 16.3 15.6 11.9 75 2.4 SSW 7 22 4 12 1023.8 1023.8 0.2
19/08:30pm 16.8 16.4 12.3 75 2.5 SSW 6 17 3 9 1023.7 1023.7 0.2
19/08:00pm 17.0 15.4 12.9 77 2.3 S 13 24 7 13 1023.2 1023.2 0.2
19/07:30pm 17.1 16.8 13.2 78 2.2 S 7 19 4 10 1022.8 1022.8 0.0
19/07:00pm 17.5 16.7 12.8 74 2.6 S 9 22 5 12 1022.6 1022.6 0.0
19/06:30pm 17.7 17.4 13.2 75 2.5 SSE 7 24 4 13 1021.6 1021.6 0.0
19/06:00pm 18.0 17.4 13.5 75 2.5 S 9 19 5 10 1021.5 1021.5 0.0
19/05:30pm 18.1 18.4 13.4 74 2.7 S 4 13 2 7 1021.0 1021.0 0.0
19/05:00pm 18.4 17.9 13.7 74 2.7 S 9 20 5 11 1020.7 1020.7 0.0
19/04:30pm 18.6 18.1 13.9 74 2.7 S 9 15 5 8 1020.2 1020.2 0.0
19/04:00pm 19.9 19.3 14.5 71 3.1 S 11 24 6 13 1019.5 1019.5 0.0
19/03:30pm 19.6 19.1 14.8 74 2.8 SSE 11 24 6 13 1019.2 1019.2 0.0
19/03:00pm 19.7 19.1 14.5 72 3.0 SSE 11 22 6 12 1018.9 1018.9 0.0
19/02:30pm 21.1 21.5 15.2 69 3.5 SSE 7 15 4 8 1018.6 1018.6 0.0
19/02:00pm 22.5 22.5 13.6 57 5.1 ESE 6 13 3 7 1018.3 1018.3 0.0
19/01:30pm 22.0 22.2 12.0 53 5.6 SSW 2 7 1 4 1018.2 1018.2 0.0
19/01:00pm 21.6 21.2 11.0 51 5.8 WSW 4 6 2 3 1018.4 1018.4 0.0
19/12:30pm 21.1 20.0 10.0 49 6.0 SW 6 11 3 6 1018.5 1018.5 0.0
19/12:00pm 21.2 19.6 8.8 45 6.5 WSW 7 13 4 7 1018.8 1018.8 0.0
19/11:30am 21.4 20.4 10.3 49 6.0 WSW 6 9 3 5 1018.8 1018.8 0.0
19/11:00am 21.7 20.5 11.7 53 5.6 WSW 9 20 5 11 1018.8 1018.8 0.0
19/10:30am 21.7 21.3 14.1 62 4.4 SW 9 24 5 13 1018.8 1018.8 0.0
19/10:00am 22.5 22.6 15.4 64 4.2 WSW 9 17 5 9 1018.5 1018.5 0.0
19/09:30am 22.7 23.1 15.3 63 4.4 WSW 7 15 4 8 1018.3 1018.3 0.0
19/09:00am 21.8 24.0 17.4 76 2.7 WNW 2 4 1 2 1018.2 1018.2 1.4
19/08:30am 19.9 21.4 16.7 82 1.9 NNW 4 9 2 5 1017.9 1017.9 1.4
19/08:00am 18.9 21.2 17.7 93 0.7 NNE 2 4 1 2 1017.4 1017.4 1.4
19/07:30am 18.1 20.6 17.3 95 0.5 CALM 0 0 0 0 1017.0 1017.0 1.4

Other Formats:

Comma delimited format used in spreadsheet applications
http://www.bom.gov.au/fwo/IDN60801/IDN60801.95767.axf

JavaScript Object Notation format (JSON) in row-major order
http://www.bom.gov.au/fwo/IDN60801/IDN60801.95767.json